Latest Coastal Weather Observations for Wynyard

IDT60701

Issued at 2:52 pm EST Sunday 18 August 2019 (issued every 10 minutes, with the page automatically refreshed every 10 minutes)

About coastal observations | Map of coastal stations | Coastal observations for TAS | Marine services | Other Formats
Station Details ID: 091107 Name: WYNYARD AIRPORT Lat: -41.00 Lon: 145.73 Height: 12.0 m
Data from the previous 72 hours. | See also: Recent months at Wynyard
Date/Time
EST
Wind Sea
Height
m
Swell Vis
km
Cloud Weather Temp
°C
Press
hPa
Rain since
9am
mm
Dir  Spd
kts
Gust
kts
Height
m
Period
s
Dir
18/02:30pm NNW 13 22 - - - - 9 Partly cloudy - 12.2 1000.9 0.2
18/02:00pm N 11 17 - - - - 10 Partly cloudy - 13.7 1000.9 0.0
18/01:30pm NNE 11 14 - - - - 10 - - 13.4 1001.4 0.0
18/01:00pm NE 7 11 - - - - 10 Partly cloudy - 13.2 1002.2 0.0
18/12:30pm ENE 7 9 - - - - 10 Partly cloudy - 12.9 1003.4 0.0
18/12:00pm E 8 11 - - - - 10 Cloudy - 12.6 1004.2 0.0
18/11:30am E 10 14 - - - - 10 Partly cloudy - 13.0 1004.4 0.0
18/11:00am E 9 13 - - - - 10 Partly cloudy - 12.7 1005.3 0.0
18/10:30am E 9 12 - - - - 10 Cloudy - 13.0 1005.6 0.0
18/10:00am E 9 12 - - - - 10 Cloudy - 11.7 1006.1 0.0
18/09:30am E 6 9 - - - - 10 Partly cloudy - 11.5 1006.9 0.0
18/09:00am E 7 9 - - - - 10 Mostly cloudy Rain 11.5 1007.1 0.4
18/08:30am E 6 8 - - - - 10 Partly cloudy - 11.4 1007.6 0.2
18/08:28am E 6 9 - - - - 10 Partly cloudy - 11.4 1007.7 0.2
18/08:00am ENE 6 9 - - - - 10 Cloudy - 11.5 1008.4 0.2
18/07:30am E 6 9 - - - - 10 Partly cloudy - 11.4 1008.5 0.2
18/07:24am E 5 7 - - - - 10 Partly cloudy - 11.4 1008.4 0.2
18/07:00am ENE 5 7 - - - - 10 Cloudy - 11.0 1008.6 0.2
18/06:30am ENE 5 7 - - - - 10 Partly cloudy - 11.1 1008.9 0.2
18/06:00am NNE 5 8 - - - - 10 Cloudy - 11.2 1009.2 0.2
18/05:30am ENE 6 9 - - - - 10 Partly cloudy - 10.9 1009.3 0.2
18/05:00am ENE 7 10 - - - - 10 Partly cloudy - 11.1 1009.7 0.2
18/04:30am NE 5 8 - - - - 10 Cloudy - 10.9 1010.3 0.2
18/04:10am NNE 3 5 - - - - 10 Partly cloudy - 11.0 1010.8 0.2
18/04:00am NNE 6 9 - - - - 10 Partly cloudy - 10.9 1010.7 0.2
18/03:30am NNE 8 12 - - - - 10 Cloudy - 11.0 1011.1 0.2
18/03:00am NNE 7 11 - - - - 10 Cloudy - 11.3 1011.6 0.2
18/02:30am NNE 9 11 - - - - 10 Cloudy - 11.3 1012.1 0.2
18/02:00am NE 7 8 - - - - 10 Cloudy - 10.9 1012.7 0.2
18/01:30am ENE 6 9 - - - - 10 Cloudy - 10.9 1012.8 0.2
18/01:00am ENE 8 11 - - - - 10 Partly cloudy - 10.9 1013.5 0.2
18/12:32am ENE 8 10 - - - - 10 Partly cloudy - 10.9 1014.6 0.2
18/12:30am ENE 8 11 - - - - 10 Cloudy - 10.9 1014.6 0.2
18/12:00am ENE 7 9 - - - - 10 Cloudy - 10.5 1015.2 0.2
 
Date/Time
EST
Wind Sea
Height
m
Swell Vis
km
Cloud Weather Temp
°C
Press
hPa
Rain since
9am
mm
Dir  Spd
kts
Gust
kts
Height
m
Period
s
Dir
17/11:30pm ENE 9 13 - - - - 10 Partly cloudy - 10.8 1015.4 0.2
17/11:00pm ENE 9 14 - - - - 10 Partly cloudy - 10.9 1015.5 0.2
17/10:30pm ENE 9 12 - - - - 10 Partly cloudy - 10.9 1016.1 0.2
17/10:00pm ENE 9 14 - - - - 10 Partly cloudy - 10.9 1016.9 0.2
17/09:30pm ENE 9 13 - - - - 10 Partly cloudy - 10.8 1016.8 0.2
17/09:00pm ENE 11 14 - - - - 10 Cloudy - 10.8 1017.1 0.2
17/08:30pm ENE 12 16 - - - - 10 Partly cloudy - 10.7 1017.4 0.2
17/08:00pm ENE 9 13 - - - - 10 Partly cloudy - 10.3 1017.4 0.2
17/07:30pm NE 10 14 - - - - 10 Partly cloudy - 10.5 1017.8 0.2
17/07:00pm NE 11 14 - - - - 10 Partly cloudy - 10.3 1018.2 0.2
17/06:30pm NE 9 15 - - - - 10 Partly cloudy - 10.0 1018.4 0.2
17/06:00pm E 5 8 - - - - 10 Cloudy - 9.7 1018.5 0.2
17/05:30pm ENE 5 8 - - - - 10 Partly cloudy - 9.4 1018.3 0.2
17/05:20pm ENE 6 9 - - - - 9 Partly cloudy - 9.3 1018.3 0.2
17/05:00pm NE 9 11 - - - - 3 Partly cloudy - 9.5 1018.4 0.2
17/04:46pm NNE 13 18 - - - - 5 Partly cloudy - 9.8 1018.4 0.0
17/04:30pm NE 9 12 - - - - 10 Partly cloudy - 11.1 1018.5 0.0
17/04:29pm NE 9 12 - - - - 10 Partly cloudy - 11.1 1018.5 0.0
17/04:12pm NE 8 11 - - - - 10 Partly cloudy - 11.3 1018.5 0.0
17/04:00pm ENE 9 13 - - - - 10 Partly cloudy - 11.4 1018.6 0.0
17/03:36pm ENE 10 14 - - - - 10 Partly cloudy - 11.1 1018.7 0.0
17/03:30pm ENE 10 14 - - - - 10 Partly cloudy - 11.3 1018.7 0.0
17/03:24pm NE 9 14 - - - - 10 Partly cloudy - 11.2 1018.8 0.0
17/03:00pm NE 8 11 - - - - 10 Cloudy - 11.6 1019.0 0.0
17/02:30pm E 10 14 - - - - 10 Partly cloudy - 11.1 1019.0 0.0
17/02:00pm ESE 10 13 - - - - 10 Partly cloudy - 11.5 1019.2 0.0
17/01:30pm ESE 10 13 - - - - 10 - - 10.8 1019.8 0.0
17/01:00pm E 9 13 - - - - 10 Cloudy - 11.0 1020.3 0.0
17/12:30pm E 9 13 - - - - 10 Partly cloudy - 10.5 1020.7 0.0
17/12:00pm E 7 10 - - - - 10 Mostly clear - 10.1 1021.1 0.0
17/11:30am ENE 7 10 - - - - 10 Partly cloudy - 10.4 1021.4 0.0
17/11:00am E 5 8 - - - - 10 Partly cloudy - 9.8 1021.6 0.0
17/10:54am ENE 5 9 - - - - 10 Partly cloudy - 9.7 1021.6 0.0
17/10:30am E 6 9 - - - - 10 Partly cloudy - 9.4 1021.6 0.0
17/10:00am E 6 9 - - - - 10 Partly cloudy - 9.1 1021.7 0.0
17/09:30am WSW 1 4 - - - - 10 - - 7.8 1021.7 0.0
17/09:00am WNW 4 5 - - - - 10 Mostly clear - 5.7 1021.6 2.6
17/08:30am WNW 4 5 - - - - 10 Partly cloudy - 3.8 1021.6 2.6
17/08:00am WNW 5 5 - - - - 10 - - 2.3 1021.5 2.6
17/07:30am WNW 6 7 - - - - 10 - - 0.7 1021.2 2.6
17/07:00am WNW 6 7 - - - - 10 - - 0.9 1020.8 2.6
17/06:58am WNW 6 7 - - - - 10 - - 0.9 1020.7 2.6
17/06:32am W 6 7 - - - - 5 Partly cloudy - 0.5 1020.4 2.6
17/06:30am WNW 6 7 - - - - 7 Partly cloudy - 0.6 1020.4 2.6
17/06:00am WNW 6 7 - - - - 10 Mostly clear - 1.0 1020.1 2.6
17/05:30am WNW 6 8 - - - - 10 - - 1.4 1020.0 2.6
17/05:00am WNW 8 9 - - - - 10 - - 1.7 1019.9 2.6
17/04:30am W 7 8 - - - - 10 - - 1.3 1019.6 2.6
17/04:00am W 7 8 - - - - 10 - - 1.3 1019.3 2.6
17/03:30am W 7 7 - - - - 10 - - 1.8 1019.1 2.6
17/03:00am WNW 6 7 - - - - 10 - - 2.7 1019.2 2.6
17/02:30am WNW 5 6 - - - - 10 - - 3.2 1019.2 2.6
17/02:00am NW 5 6 - - - - 10 - - 3.7 1019.0 2.6
17/01:30am WNW 7 9 - - - - 10 - - 3.7 1018.9 2.6
17/01:00am WNW 6 8 - - - - 10 - - 4.5 1018.6 2.6
17/12:30am W 5 7 - - - - 10 - - 5.5 1018.6 2.6
17/12:00am NW 4 6 - - - - 10 - - 5.8 1018.5 2.6
 
Date/Time
EST
Wind Sea
Height
m
Swell Vis
km
Cloud Weather Temp
°C
Press
hPa
Rain since
9am
mm
Dir  Spd
kts
Gust
kts
Height
m
Period
s
Dir
16/11:30pm W 5 9 - - - - 10 - - 6.0 1018.3 2.6
16/11:00pm WNW 5 7 - - - - 10 - - 6.2 1018.2 2.6
16/10:30pm WSW 4 6 - - - - 10 - - 6.3 1017.8 2.6
16/10:00pm W 6 9 - - - - 10 - - 6.7 1017.6 2.6
16/09:30pm W 7 8 - - - - 10 - - 6.5 1017.3 2.6
16/09:00pm SW 7 9 - - - - 10 - - 7.2 1016.9 2.6
16/08:30pm SW 7 11 - - - - 10 - - 7.7 1016.4 2.6
16/08:00pm WSW 7 9 - - - - 10 - - 6.8 1015.9 2.6
16/07:30pm WSW 7 9 - - - - 10 - - 6.5 1015.4 2.6
16/07:00pm SW 7 9 - - - - 10 - - 8.4 1014.7 2.6
16/06:30pm SW 6 9 - - - - 10 - - 9.0 1014.1 2.6
16/06:00pm SW 6 8 - - - - 10 - - 9.4 1013.3 2.6
16/05:30pm SW 7 10 - - - - 10 - - 10.4 1012.5 2.6
16/05:00pm SSW 9 14 - - - - 10 - - 11.9 1011.6 2.6
16/04:30pm SSW 7 14 - - - - 10 Partly cloudy - 12.6 1010.5 2.6
16/04:00pm S 11 17 - - - - 10 Cloudy - 12.2 1010.2 2.6
16/03:30pm SSW 9 15 - - - - 10 Partly cloudy - 12.3 1010.0 2.6
16/03:00pm S 5 7 - - - - 10 Cloudy Recent precip. 12.2 1009.5 2.6
16/02:30pm SSW 9 15 - - - - 10 Partly cloudy - 12.3 1009.0 2.4
16/02:00pm ESE 7 11 - - - - 10 Partly cloudy - 12.5 1008.2 2.4
16/01:30pm SE 8 11 - - - - 10 Cloudy - 13.4 1008.0 2.4
16/01:00pm SE 7 10 - - - - 10 Partly cloudy - 12.5 1007.7 2.4
16/12:30pm SSE 8 10 - - - - 10 Partly cloudy - 11.5 1007.9 2.4
16/12:00pm SSE 9 13 - - - - 10 Cloudy Recent precip. 10.3 1008.1 2.4
16/11:30am S 9 15 - - - - 10 Cloudy - 9.6 1008.6 2.4
16/11:21am S 9 16 - - - - 10 Partly cloudy - 9.4 1008.7 2.4
16/11:14am S 9 15 - - - - 6 Partly cloudy - 9.3 1008.7 2.4
16/11:00am SSW 9 13 - - - - 4 Partly cloudy - 9.2 1008.8 2.2
16/10:40am S 8 13 - - - - 5 Partly cloudy - 9.7 1008.7 1.2
16/10:30am S 6 9 - - - - 9 Partly cloudy - 10.0 1008.7 1.0
16/10:25am SSW 5 8 - - - - 7 Partly cloudy - 10.1 1008.6 1.0
16/10:09am SSW 5 7 - - - - 5 Partly cloudy - 10.1 1008.6 0.8
16/10:00am SSW 3 5 - - - - 10 Partly cloudy - 10.1 1008.6 0.6
16/09:38am SW 3 7 - - - - 10 Partly cloudy - 10.0 1008.5 0.6
16/09:30am S 6 8 - - - - 10 Partly cloudy - 9.9 1008.6 0.6
16/09:00am WSW 7 11 - - - - 6 Cloudy Rain 9.6 1009.0 13.2
16/08:58am SW 7 11 - - - - 6 Partly cloudy - 9.5 1009.0 13.2
16/08:57am SW 7 10 - - - - 6 Partly cloudy - 9.4 1009.0 13.0
16/08:30am S 3 4 - - - - 9 Partly cloudy - 9.3 1009.2 12.2
16/08:16am E 1 3 - - - - 10 Partly cloudy - 9.1 1009.2 12.0
16/08:00am S 3 6 - - - - 10 Partly cloudy - 8.9 1009.0 12.0
16/07:30am SSE 4 5 - - - - 10 Partly cloudy - 8.4 1009.1 12.0
16/07:12am SE 3 5 - - - - 8 Partly cloudy - 8.2 1009.3 12.0
16/07:00am S 3 4 - - - - 5 Partly cloudy - 8.1 1009.1 12.0
16/06:30am CALM 0 0 - - - - 5 Partly cloudy - 8.1 1009.4 12.0
16/06:19am CALM 0 0 - - - - 5 Partly cloudy - 8.5 1009.4 12.0
16/06:00am CALM 0 3 - - - - 10 Cloudy - 8.7 1009.3 12.0
16/05:30am CALM 0 0 - - - - 10 Cloudy - 8.7 1009.6 12.0
16/05:00am NNE 4 5 - - - - 10 Cloudy - 9.2 1009.8 12.0
16/04:30am CALM 0 1 - - - - 10 Partly cloudy - 8.9 1009.6 12.0
16/04:00am WSW 5 6 - - - - 10 Partly cloudy - 9.2 1010.2 12.0
16/03:30am NNW 3 5 - - - - 10 Cloudy - 9.5 1010.5 12.0
16/03:00am NW 5 7 - - - - 10 Cloudy Recent precip. 9.9 1010.8 12.0
16/02:30am WSW 4 5 - - - - 10 Partly cloudy - 9.7 1010.8 12.0
16/02:00am W 7 9 - - - - 10 Partly cloudy - 10.2 1011.7 11.8
16/01:31am NNW 7 9 - - - - 9 Partly cloudy - 10.7 1012.0 11.4
16/01:30am NNW 7 9 - - - - 9 Partly cloudy - 10.6 1012.0 11.4
16/01:00am NNW 3 6 - - - - 5 Partly cloudy - 10.4 1012.4 10.0
16/12:56am NW 1 5 - - - - 5 Partly cloudy - 10.3 1012.3 9.6
16/12:52am CALM 0 1 - - - - 8 Partly cloudy - 10.1 1012.2 9.4
16/12:36am W 4 6 - - - - 5 Partly cloudy - 10.1 1011.9 9.2
16/12:35am WNW 4 7 - - - - 6 Partly cloudy - 10.1 1011.9 9.2
16/12:30am WNW 5 7 - - - - 7 Partly cloudy - 10.4 1012.2 8.6
16/12:22am WNW 5 6 - - - - 5 Partly cloudy - 10.3 1012.2 8.6
16/12:17am W 5 5 - - - - 6 Partly cloudy - 10.3 1012.3 8.4
16/12:05am NW 5 5 - - - - 5 Partly cloudy - 10.5 1012.3 8.0
16/12:00am NW 5 6 - - - - 6 Cloudy Rain 10.6 1012.4 7.6
 
Date/Time
EST
Wind Sea
Height
m
Swell Vis
km
Cloud Weather Temp
°C
Press
hPa
Rain since
9am
mm
Dir  Spd
kts
Gust
kts
Height
m
Period
s
Dir
15/11:35pm WNW 6 8 - - - - 5 Partly cloudy - 10.6 1012.9 6.6
15/11:30pm NW 7 9 - - - - 7 Partly cloudy - 10.6 1013.0 6.4
15/11:07pm NW 7 9 - - - - 5 Partly cloudy - 10.9 1013.1 4.6
15/11:00pm NNW 6 8 - - - - 6 Partly cloudy - 11.0 1013.0 4.2
15/10:30pm NW 5 6 - - - - 9 Partly cloudy - 11.1 1012.8 3.6
15/10:07pm NW 6 9 - - - - 7 Partly cloudy - 11.2 1013.1 3.4
15/10:00pm NW 5 6 - - - - 7 Partly cloudy - 11.2 1013.1 3.4
15/09:52pm NW 6 8 - - - - 7 Partly cloudy - 11.3 1013.1 3.4
15/09:39pm NW 7 9 - - - - 5 Partly cloudy - 11.4 1013.2 3.4
15/09:30pm NW 7 8 - - - - 10 Partly cloudy - 11.4 1013.1 3.4
15/09:00pm NW 7 10 - - - - 9 Cloudy Rain 11.4 1013.3 3.2
15/08:56pm NW 8 10 - - - - 10 Partly cloudy - 11.4 1013.4 3.2
15/08:36pm NW 8 10 - - - - 5 Partly cloudy - 11.5 1013.3 2.4
15/08:30pm NW 8 10 - - - - 8 Partly cloudy - 11.5 1013.3 2.2
15/08:00pm NW 9 13 - - - - 10 Cloudy - 11.6 1013.2 2.2
15/07:30pm WNW 11 14 - - - - 10 Cloudy - 11.4 1013.2 2.0
15/07:00pm NW 10 14 - - - - 10 Partly cloudy - 11.2 1013.2 2.0
15/06:43pm NW 10 13 - - - - 10 Partly cloudy - 11.1 1013.3 2.0
15/06:41pm NW 10 14 - - - - 9 Partly cloudy - 11.1 1013.3 2.0
15/06:36pm NNW 11 17 - - - - 7 Partly cloudy - 11.1 1013.2 2.0
15/06:30pm NNW 12 17 - - - - 5 Partly cloudy - 11.0 1013.3 2.0
15/06:17pm NW 9 15 - - - - 5 Partly cloudy - 11.1 1013.3 1.2
15/06:00pm NW 6 8 - - - - 10 Cloudy - 10.9 1013.5 0.6
15/05:30pm NW 9 15 - - - - 7 Cloudy - 10.7 1013.7 0.6
15/05:13pm WNW 8 11 - - - - 10 Cloudy - 10.6 1013.7 0.6
15/05:00pm NW 9 12 - - - - 5 Cloudy - 10.5 1013.7 0.6
15/04:30pm NW 13 18 - - - - 4 Partly cloudy - 10.8 1013.6 0.6
15/04:26pm NW 13 18 - - - - 5 Partly cloudy - 11.0 1013.6 0.6
15/04:00pm NW 11 15 - - - - 10 Cloudy - 11.5 1013.6 0.6
15/03:30pm NW 7 12 - - - - 10 Partly cloudy - 11.3 1013.8 0.6
15/03:00pm NW 6 9 - - - - 10 Cloudy - 11.3 1013.9 0.6

Other formats

Comma delimited format used in spreadsheet applications
http://www.bom.gov.au/fwo/IDT60701/IDT60701.95957.axf

JavaScript Object Notation format (JSON) in row-major order
http://www.bom.gov.au/fwo/IDT60701/IDT60701.95957.json

Data quality

Most of these data are generated automatically and are frequently updated. Quality checks on data are not normally performed. It is possible for incorrect values to appear. Refer to information at About Latest Weather Observations and please check the disclaimer before using these data.